sensor_id;sensor_type;location;lat;lon;timestamp;temperature;humidity
81366;DHT22;70822;51.990;22.766;2024-02-16T00:00:40;5.80;72.00
81366;DHT22;70822;51.990;22.766;2024-02-16T00:15:49;5.60;72.60
81366;DHT22;70822;51.990;22.766;2024-02-16T00:30:55;5.20;72.90
81366;DHT22;70822;51.990;22.766;2024-02-16T00:46:00;4.80;73.50
81366;DHT22;70822;51.990;22.766;2024-02-16T01:01:05;4.90;73.40
81366;DHT22;70822;51.990;22.766;2024-02-16T01:16:15;4.80;73.10
81366;DHT22;70822;51.990;22.766;2024-02-16T01:31:22;4.40;74.30
81366;DHT22;70822;51.990;22.766;2024-02-16T01:46:27;4.20;76.10
81366;DHT22;70822;51.990;22.766;2024-02-16T02:01:32;4.00;77.50
81366;DHT22;70822;51.990;22.766;2024-02-16T02:16:37;3.60;78.40
81366;DHT22;70822;51.990;22.766;2024-02-16T02:31:44;3.60;78.90
81366;DHT22;70822;51.990;22.766;2024-02-16T02:46:49;3.60;77.90
81366;DHT22;70822;51.990;22.766;2024-02-16T03:01:54;3.50;78.10
81366;DHT22;70822;51.990;22.766;2024-02-16T03:16:59;3.30;78.90
81366;DHT22;70822;51.990;22.766;2024-02-16T03:32:04;3.20;79.30
81366;DHT22;70822;51.990;22.766;2024-02-16T03:47:08;3.10;79.20
81366;DHT22;70822;51.990;22.766;2024-02-16T04:02:13;2.80;79.90
81366;DHT22;70822;51.990;22.766;2024-02-16T04:17:18;2.60;79.90
81366;DHT22;70822;51.990;22.766;2024-02-16T04:32:23;2.30;80.50
81366;DHT22;70822;51.990;22.766;2024-02-16T04:47:30;2.10;80.70
81366;DHT22;70822;51.990;22.766;2024-02-16T05:02:35;2.00;81.20
81366;DHT22;70822;51.990;22.766;2024-02-16T05:17:41;1.70;81.80
81366;DHT22;70822;51.990;22.766;2024-02-16T05:32:46;1.50;81.80
81366;DHT22;70822;51.990;22.766;2024-02-16T05:47:51;2.10;82.00
81366;DHT22;70822;51.990;22.766;2024-02-16T06:02:56;1.90;81.50
81366;DHT22;70822;51.990;22.766;2024-02-16T06:18:01;1.80;81.80
81366;DHT22;70822;51.990;22.766;2024-02-16T06:33:06;2.20;81.50
81366;DHT22;70822;51.990;22.766;2024-02-16T06:48:11;2.80;80.70
81366;DHT22;70822;51.990;22.766;2024-02-16T07:03:16;3.30;79.40
81366;DHT22;70822;51.990;22.766;2024-02-16T07:18:22;3.40;78.20
81366;DHT22;70822;51.990;22.766;2024-02-16T07:33:26;3.70;77.60
81366;DHT22;70822;51.990;22.766;2024-02-16T07:48:33;3.90;77.60
81366;DHT22;70822;51.990;22.766;2024-02-16T08:03:38;4.20;77.60
81366;DHT22;70822;51.990;22.766;2024-02-16T08:18:45;4.60;76.10
81366;DHT22;70822;51.990;22.766;2024-02-16T08:33:50;5.10;75.30
81366;DHT22;70822;51.990;22.766;2024-02-16T08:48:56;5.50;74.90
81366;DHT22;70822;51.990;22.766;2024-02-16T09:04:02;5.90;74.50
81366;DHT22;70822;51.990;22.766;2024-02-16T09:19:09;6.80;72.90
81366;DHT22;70822;51.990;22.766;2024-02-16T09:34:14;7.60;70.70
81366;DHT22;70822;51.990;22.766;2024-02-16T09:49:19;8.30;69.30
81366;DHT22;70822;51.990;22.766;2024-02-16T10:04:27;9.00;68.40
81366;DHT22;70822;51.990;22.766;2024-02-16T10:19:33;9.80;64.00
81366;DHT22;70822;51.990;22.766;2024-02-16T10:34:46;9.90;61.90
81366;DHT22;70822;51.990;22.766;2024-02-16T10:49:52;10.00;61.50
81366;DHT22;70822;51.990;22.766;2024-02-16T11:04:57;10.10;61.80
81366;DHT22;70822;51.990;22.766;2024-02-16T11:20:19;10.60;62.20
81366;DHT22;70822;51.990;22.766;2024-02-16T11:35:24;10.50;61.80
81366;DHT22;70822;51.990;22.766;2024-02-16T11:50:30;10.70;60.90
81366;DHT22;70822;51.990;22.766;2024-02-16T12:05:34;10.40;61.60
81366;DHT22;70822;51.990;22.766;2024-02-16T12:20:40;10.40;61.30
81366;DHT22;70822;51.990;22.766;2024-02-16T12:35:46;10.20;61.70
81366;DHT22;70822;51.990;22.766;2024-02-16T12:50:52;10.00;61.90
81366;DHT22;70822;51.990;22.766;2024-02-16T13:05:57;9.90;61.90
81366;DHT22;70822;51.990;22.766;2024-02-16T13:21:02;9.80;62.40
81366;DHT22;70822;51.990;22.766;2024-02-16T13:36:07;9.70;62.10
81366;DHT22;70822;51.990;22.766;2024-02-16T13:51:14;9.50;62.50
81366;DHT22;70822;51.990;22.766;2024-02-16T14:06:19;9.40;63.10
81366;DHT22;70822;51.990;22.766;2024-02-16T14:21:24;9.30;64.20
81366;DHT22;70822;51.990;22.766;2024-02-16T14:36:30;9.00;64.90
81366;DHT22;70822;51.990;22.766;2024-02-16T14:51:39;8.90;65.40
81366;DHT22;70822;51.990;22.766;2024-02-16T15:06:44;8.60;66.10
81366;DHT22;70822;51.990;22.766;2024-02-16T15:21:49;8.50;67.20
81366;DHT22;70822;51.990;22.766;2024-02-16T15:36:54;8.20;67.60
81366;DHT22;70822;51.990;22.766;2024-02-16T15:52:02;7.90;67.70
81366;DHT22;70822;51.990;22.766;2024-02-16T16:07:08;7.50;68.20
81366;DHT22;70822;51.990;22.766;2024-02-16T16:22:13;7.30;69.30
81366;DHT22;70822;51.990;22.766;2024-02-16T16:37:18;6.90;70.60
81366;DHT22;70822;51.990;22.766;2024-02-16T16:52:23;6.70;71.50
81366;DHT22;70822;51.990;22.766;2024-02-16T17:07:28;6.10;73.50
81366;DHT22;70822;51.990;22.766;2024-02-16T17:22:36;5.90;74.00
81366;DHT22;70822;51.990;22.766;2024-02-16T17:37:43;5.60;74.40
81366;DHT22;70822;51.990;22.766;2024-02-16T17:52:50;5.00;75.90
81366;DHT22;70822;51.990;22.766;2024-02-16T18:07:55;4.80;76.70
81366;DHT22;70822;51.990;22.766;2024-02-16T18:23:00;4.20;77.90
81366;DHT22;70822;51.990;22.766;2024-02-16T18:38:05;3.60;78.90
81366;DHT22;70822;51.990;22.766;2024-02-16T18:53:10;3.30;80.00
81366;DHT22;70822;51.990;22.766;2024-02-16T19:08:14;3.00;80.80
81366;DHT22;70822;51.990;22.766;2024-02-16T19:23:19;2.80;81.50
81366;DHT22;70822;51.990;22.766;2024-02-16T19:38:25;2.20;82.60
81366;DHT22;70822;51.990;22.766;2024-02-16T19:53:29;2.20;82.90
81366;DHT22;70822;51.990;22.766;2024-02-16T20:08:35;2.00;84.00
81366;DHT22;70822;51.990;22.766;2024-02-16T20:23:40;2.00;84.20
81366;DHT22;70822;51.990;22.766;2024-02-16T20:38:47;1.90;84.00
81366;DHT22;70822;51.990;22.766;2024-02-16T20:53:53;2.00;84.40
81366;DHT22;70822;51.990;22.766;2024-02-16T21:08:57;2.00;84.50
81366;DHT22;70822;51.990;22.766;2024-02-16T21:24:03;1.90;85.20
81366;DHT22;70822;51.990;22.766;2024-02-16T21:39:08;2.10;84.90
81366;DHT22;70822;51.990;22.766;2024-02-16T21:54:15;2.10;84.70
81366;DHT22;70822;51.990;22.766;2024-02-16T22:09:20;2.00;84.90
81366;DHT22;70822;51.990;22.766;2024-02-16T22:24:27;1.90;84.70
81366;DHT22;70822;51.990;22.766;2024-02-16T22:39:32;2.00;84.80
81366;DHT22;70822;51.990;22.766;2024-02-16T22:54:38;2.20;84.30
81366;DHT22;70822;51.990;22.766;2024-02-16T23:09:44;2.00;83.80
81366;DHT22;70822;51.990;22.766;2024-02-16T23:24:50;2.00;83.70
81366;DHT22;70822;51.990;22.766;2024-02-16T23:39:55;2.30;83.50
81366;DHT22;70822;51.990;22.766;2024-02-16T23:55:00;2.20;83.40
